Time;durP1;ratioP1;P1;durP2;ratioP2;P2;SDS_P1;SDS_P2;PMS_P1;PMS_P2;Temp;Humidity;BMP_temperature;BMP_pressure;BME280_temperature;BME280_humidity;BME280_pressure;Samples;Min_cycle;Max_cycle;Signal;HPM_P1;HPM_P2
2022/04/23 00:02:10;;;;;;;7.60;6.90;;;14.60;74.90;;;;;;4960638;28;20229;-83
2022/04/23 00:04:36;;;;;;;8.57;7.78;;;14.60;74.50;;;;;;4972907;28;20570;-83
2022/04/23 00:07:02;;;;;;;7.00;6.30;;;14.60;74.60;;;;;;4948905;28;20195;-83
2022/04/23 00:09:28;;;;;;;7.28;6.65;;;14.50;74.40;;;;;;4973982;28;20219;-84
2022/04/23 00:11:55;;;;;;;7.13;6.43;;;14.50;75.50;;;;;;4964326;28;20286;-83
2022/04/23 00:14:26;;;;;;;8.13;7.32;;;14.50;75.20;;;;;;4974225;28;20171;-82
2022/04/23 00:16:53;;;;;;;7.70;7.00;;;14.50;75.90;;;;;;4973531;28;20199;-82
2022/04/23 00:19:20;;;;;;;8.07;7.28;;;14.40;76.50;;;;;;4974038;28;20183;-83
2022/04/23 00:21:46;;;;;;;6.78;6.18;;;14.40;75.50;;;;;;4974006;28;20267;-82
2022/04/23 00:24:12;;;;;;;7.50;6.80;;;14.30;75.60;;;;;;4973150;28;20272;-82
2022/04/23 00:26:39;;;;;;;6.87;6.27;;;14.30;75.70;;;;;;4988283;23;20666;-74
2022/04/23 00:29:06;;;;;;;8.80;7.63;;;14.30;75.90;;;;;;4955424;28;20207;-74
2022/04/23 00:31:32;;;;;;;8.77;7.97;;;14.20;77.50;;;;;;4961528;28;20229;-74
2022/04/23 00:33:57;;;;;;;8.40;7.57;;;14.20;76.80;;;;;;4973455;28;20594;-74
2022/04/23 00:36:23;;;;;;;7.33;6.73;;;14.20;77.70;;;;;;4977232;28;20663;-74
2022/04/23 00:38:52;;;;;;;7.60;6.90;;;14.10;77.40;;;;;;4973264;28;20172;-74
2022/04/23 00:44:07;;;;;;;7.63;6.85;;;14.10;79.00;;;;;;4973498;28;20199;-74
2022/04/23 00:46:32;;;;;;;7.70;7.00;;;14.00;78.70;;;;;;4956235;28;20552;-74
2022/04/23 00:48:58;;;;;;;7.77;7.07;;;14.00;79.10;;;;;;4955840;28;20186;-74
2022/04/23 00:51:27;;;;;;;8.50;7.70;;;14.00;79.80;;;;;;4972903;28;21006;-74
2022/04/23 00:53:54;;;;;;;8.45;7.65;;;13.90;80.00;;;;;;4973446;28;20168;-74
2022/04/23 00:56:20;;;;;;;8.68;8.07;;;13.90;81.30;;;;;;4973204;28;20656;-74
2022/04/23 00:58:46;;;;;;;7.32;6.72;;;13.90;81.50;;;;;;4971744;28;20174;-74
2022/04/23 01:01:12;;;;;;;8.57;7.78;;;13.90;81.40;;;;;;4972918;28;20203;-74
2022/04/23 01:03:39;;;;;;;7.10;6.40;;;13.90;82.10;;;;;;4973034;28;20176;-74
2022/04/23 01:06:06;;;;;;;8.93;8.13;;;13.80;81.70;;;;;;4955692;28;20175;-75
2022/04/23 01:08:33;;;;;;;8.75;8.05;;;13.80;81.70;;;;;;4972654;28;20164;-74
2022/04/23 01:10:59;;;;;;;8.45;7.75;;;13.80;81.90;;;;;;4955520;28;20206;-74
2022/04/23 01:13:25;;;;;;;7.30;6.60;;;13.70;82.40;;;;;;4955902;28;20258;-75
2022/04/23 01:16:05;;;;;;;8.60;7.80;;;13.80;82.40;;;;;;4972791;28;20171;-74
2022/04/23 01:18:32;;;;;;;8.32;7.63;;;13.70;83.40;;;;;;4970980;28;20175;-75
2022/04/23 01:20:59;;;;;;;9.68;8.77;;;13.70;83.50;;;;;;4955176;28;20602;-75
2022/04/23 01:23:25;;;;;;;9.68;8.75;;;13.60;84.10;;;;;;4972845;28;20164;-75
2022/04/23 01:25:54;;;;;;;9.18;8.35;;;13.60;84.60;;;;;;4972630;28;20164;-75
2022/04/23 01:28:21;;;;;;;8.00;7.30;;;13.60;84.30;;;;;;4972131;28;20242;-75
2022/04/23 01:30:52;;;;;;;9.65;8.85;;;13.60;84.40;;;;;;4955144;28;20261;-75
2022/04/23 01:33:19;;;;;;;11.45;10.38;;;13.50;86.00;;;;;;4972572;28;20250;-75
2022/04/23 01:35:45;;;;;;;9.52;8.73;;;13.50;86.80;;;;;;4955698;28;20531;-75
2022/04/23 01:38:11;;;;;;;9.70;8.90;;;13.40;87.10;;;;;;4972176;28;20198;-75
2022/04/23 01:40:37;;;;;;;9.60;8.80;;;13.40;86.60;;;;;;4972270;28;20206;-75
2022/04/23 01:43:04;;;;;;;9.68;8.80;;;13.40;86.60;;;;;;4972830;28;20227;-75
2022/04/23 01:45:30;;;;;;;10.07;9.07;;;13.40;87.20;;;;;;4972745;28;20230;-74
2022/04/23 01:47:56;;;;;;;9.25;8.18;;;13.40;87.20;;;;;;4954626;28;20274;-75
2022/04/23 01:50:22;;;;;;;10.83;9.83;;;13.40;87.80;;;;;;4972185;28;20635;-74
2022/04/23 01:52:48;;;;;;;9.77;8.90;;;13.30;87.70;;;;;;4972589;28;20919;-75
2022/04/23 01:55:14;;;;;;;10.90;10.00;;;13.30;88.20;;;;;;4972592;28;20179;-74
2022/04/23 01:57:40;;;;;;;10.02;9.05;;;13.20;90.30;;;;;;4971806;28;20607;-74
2022/04/23 02:00:08;;;;;;;9.20;8.40;;;13.20;89.80;;;;;;4972330;28;20271;-74
2022/04/23 02:02:38;;;;;;;10.50;9.50;;;13.20;90.00;;;;;;4972370;28;20168;-74
2022/04/23 02:05:05;;;;;;;11.97;10.80;;;13.20;90.50;;;;;;4972558;28;20288;-74
2022/04/23 02:07:30;;;;;;;11.10;9.93;;;13.20;90.50;;;;;;4954522;28;20285;-75
2022/04/23 02:09:56;;;;;;;10.33;9.33;;;13.10;90.50;;;;;;4954691;28;20343;-75
2022/04/23 02:12:24;;;;;;;10.27;9.17;;;13.10;90.50;;;;;;4972347;28;20928;-74
2022/04/23 02:14:50;;;;;;;10.52;9.63;;;13.10;90.70;;;;;;4972466;28;20172;-75
2022/04/23 02:17:15;;;;;;;9.90;9.10;;;13.10;90.80;;;;;;4954754;28;20187;-74
2022/04/23 02:19:41;;;;;;;10.03;8.70;;;13.00;90.90;;;;;;4971598;28;20179;-75
2022/04/23 02:22:07;;;;;;;10.48;9.48;;;13.00;91.00;;;;;;4972558;28;20562;-74
2022/04/23 02:24:33;;;;;;;10.87;9.93;;;12.90;91.20;;;;;;4970997;28;20275;-74
2022/04/23 02:26:58;;;;;;;10.43;9.50;;;12.90;92.00;;;;;;4972112;28;20293;-74
2022/04/23 02:29:24;;;;;;;11.90;10.77;;;12.90;91.80;;;;;;4954361;28;20179;-74
2022/04/23 02:31:50;;;;;;;10.70;9.60;;;12.80;92.30;;;;;;4971950;28;20550;-75
2022/04/23 02:34:16;;;;;;;11.80;10.30;;;12.80;92.10;;;;;;4972200;28;20168;-74
2022/04/23 02:36:43;;;;;;;11.45;10.45;;;12.80;92.20;;;;;;4955262;28;20216;-74
2022/04/23 02:39:09;;;;;;;9.85;9.05;;;12.70;92.30;;;;;;4971750;28;20179;-74
2022/04/23 02:41:35;;;;;;;11.80;10.80;;;12.70;92.50;;;;;;4975561;28;20168;-74
2022/04/23 02:44:00;;;;;;;11.00;10.00;;;12.70;92.60;;;;;;4975691;28;20633;-74
2022/04/23 02:46:27;;;;;;;11.27;10.27;;;12.60;93.60;;;;;;4975677;28;20187;-74
2022/04/23 02:48:55;;;;;;;11.60;10.63;;;12.60;93.50;;;;;;4975086;28;20506;-74
2022/04/23 02:51:21;;;;;;;10.65;9.63;;;12.60;93.70;;;;;;4974278;28;20199;-74
2022/04/23 02:53:47;;;;;;;10.03;9.20;;;12.60;94.20;;;;;;4975691;28;20178;-74
2022/04/23 02:56:16;;;;;;;11.57;10.60;;;12.50;94.20;;;;;;4975160;28;20567;-74
2022/04/23 02:58:42;;;;;;;11.15;10.02;;;12.50;94.20;;;;;;4974842;28;20263;-74
2022/04/23 03:01:10;;;;;;;11.95;10.85;;;12.50;94.30;;;;;;4975309;28;20176;-74
2022/04/23 03:03:42;;;;;;;11.45;10.35;;;12.40;94.40;;;;;;4975168;28;20172;-74
2022/04/23 03:06:08;;;;;;;11.02;10.13;;;12.40;94.80;;;;;;4957920;28;20541;-74
2022/04/23 03:08:40;;;;;;;11.47;10.47;;;12.40;94.80;;;;;;4974877;28;20263;-74
2022/04/23 03:11:06;;;;;;;12.05;10.85;;;12.40;95.00;;;;;;4975077;28;20278;-74
2022/04/23 03:13:34;;;;;;;12.07;10.98;;;12.30;94.90;;;;;;4975138;28;20172;-74
2022/04/23 03:16:00;;;;;;;12.10;11.00;;;12.30;95.00;;;;;;4975187;28;20171;-74
2022/04/23 03:18:26;;;;;;;11.40;10.30;;;12.30;95.20;;;;;;4974961;28;20191;-74
2022/04/23 03:20:52;;;;;;;11.00;9.90;;;12.20;95.30;;;;;;4974780;28;20264;-74
2022/04/23 03:23:19;;;;;;;12.13;11.02;;;12.20;95.50;;;;;;4975132;28;20570;-74
2022/04/23 03:25:45;;;;;;;11.48;10.38;;;12.20;95.80;;;;;;4975017;28;20179;-74
2022/04/23 03:28:13;;;;;;;10.90;10.00;;;12.10;95.90;;;;;;4956857;28;20211;-74
2022/04/23 03:30:40;;;;;;;11.48;10.38;;;12.10;96.00;;;;;;4974557;28;20630;-75
2022/04/23 03:33:06;;;;;;;10.40;9.40;;;12.00;96.20;;;;;;4975042;28;20628;-75
2022/04/23 03:35:32;;;;;;;10.40;9.40;;;12.00;96.30;;;;;;4957530;28;20179;-74
2022/04/23 03:37:59;;;;;;;10.43;9.43;;;12.00;96.40;;;;;;4956993;28;20199;-75
2022/04/23 03:40:25;;;;;;;10.77;9.73;;;12.00;96.60;;;;;;4974530;28;20557;-75
2022/04/23 03:42:50;;;;;;;10.98;9.88;;;12.00;96.70;;;;;;4974532;28;20183;-74
2022/04/23 03:45:18;;;;;;;12.00;10.90;;;11.90;96.90;;;;;;4974750;28;20167;-75
2022/04/23 03:47:45;;;;;;;12.55;11.40;;;11.90;97.10;;;;;;4974081;28;20211;-75
2022/04/23 03:50:11;;;;;;;11.60;10.50;;;11.90;97.30;;;;;;4956971;28;20191;-75
2022/04/23 03:52:37;;;;;;;11.82;10.75;;;11.80;97.40;;;;;;4974697;28;20160;-74
2022/04/23 03:55:04;;;;;;;12.67;11.37;;;11.80;97.60;;;;;;4974639;28;20671;-74
2022/04/23 03:57:31;;;;;;;10.80;9.80;;;11.80;97.70;;;;;;4974219;28;20287;-74
2022/04/23 03:59:56;;;;;;;11.75;10.55;;;11.70;97.80;;;;;;4956835;28;20693;-74
2022/04/23 04:02:22;;;;;;;11.37;10.37;;;11.70;98.10;;;;;;4974337;28;20191;-74
2022/04/23 04:04:48;;;;;;;12.18;10.98;;;11.70;98.20;;;;;;4956756;28;20164;-74
2022/04/23 04:07:20;;;;;;;11.70;10.60;;;11.60;98.30;;;;;;4974176;28;20246;-74
2022/04/23 04:09:46;;;;;;;10.93;9.93;;;11.60;98.70;;;;;;4956170;28;20595;-74
2022/04/23 04:12:11;;;;;;;11.55;10.45;;;11.60;98.60;;;;;;4973980;28;20639;-74
2022/04/23 04:14:43;;;;;;;11.85;10.75;;;11.50;98.60;;;;;;4957083;28;20219;-74
2022/04/23 04:17:10;;;;;;;12.87;11.67;;;11.50;98.80;;;;;;4973057;28;20225;-74
2022/04/23 04:19:36;;;;;;;11.20;10.20;;;11.50;99.10;;;;;;4955876;28;20176;-74
2022/04/23 04:22:03;;;;;;;11.68;10.55;;;11.50;99.10;;;;;;4956734;28;20179;-74
2022/04/23 04:24:29;;;;;;;12.73;11.43;;;11.40;99.20;;;;;;4974105;28;20211;-75
2022/04/23 04:26:56;;;;;;;13.95;12.65;;;11.40;99.30;;;;;;4973279;28;20208;-74
2022/04/23 04:29:22;;;;;;;11.20;10.05;;;11.40;99.50;;;;;;4955912;28;20175;-74
2022/04/23 04:31:48;;;;;;;12.73;11.50;;;11.40;99.60;;;;;;4973464;28;20199;-74
2022/04/23 04:34:18;;;;;;;11.73;10.52;;;11.40;99.70;;;;;;4973881;28;20571;-74
2022/04/23 04:36:48;;;;;;;11.45;10.25;;;11.40;99.90;;;;;;4973472;28;20187;-74
2022/04/23 04:39:15;;;;;;;12.57;11.45;;;11.40;99.90;;;;;;4973281;28;20214;-74
2022/04/23 04:41:41;;;;;;;12.50;11.25;;;11.40;99.90;;;;;;4972529;28;20179;-74
2022/04/23 04:44:07;;;;;;;12.63;11.38;;;11.40;99.90;;;;;;4973622;28;20503;-74
2022/04/23 04:46:34;;;;;;;13.13;11.93;;;11.40;99.90;;;;;;4973375;28;20273;-74
2022/04/23 04:49:01;;;;;;;10.77;9.65;;;11.40;99.90;;;;;;4955795;28;20237;-74
2022/04/23 04:51:27;;;;;;;14.15;11.60;;;11.40;99.90;;;;;;4955980;28;20207;-74
2022/04/23 04:53:53;;;;;;;12.87;11.67;;;11.40;99.90;;;;;;4956367;28;20747;-74
2022/04/23 04:56:19;;;;;;;13.63;12.43;;;11.40;99.90;;;;;;4955896;28;20605;-74
2022/04/23 04:58:46;;;;;;;11.80;10.70;;;11.40;99.90;;;;;;4972656;28;20535;-74
2022/04/23 05:01:12;;;;;;;13.27;12.02;;;11.50;99.90;;;;;;4973088;28;20180;-74
2022/04/23 05:03:40;;;;;;;12.60;11.48;;;11.50;99.90;;;;;;4955589;28;20260;-74
2022/04/23 05:06:11;;;;;;;12.27;11.07;;;11.60;99.90;;;;;;4973452;28;20623;-74
2022/04/23 05:08:37;;;;;;;10.60;9.50;;;11.60;99.90;;;;;;4972674;28;20159;-74
2022/04/23 05:11:05;;;;;;;12.75;11.55;;;11.60;99.90;;;;;;4955458;28;20219;-74
2022/04/23 05:13:31;;;;;;;12.85;11.63;;;11.70;99.90;;;;;;4973215;28;20239;-74
2022/04/23 05:15:58;;;;;;;11.20;10.18;;;11.80;99.90;;;;;;4972990;28;20167;-74
2022/04/23 05:18:24;;;;;;;12.80;11.60;;;11.80;99.90;;;;;;4972468;28;20636;-74
2022/04/23 05:20:50;;;;;;;12.30;11.10;;;11.90;99.90;;;;;;4955448;28;20179;-74
2022/04/23 05:23:16;;;;;;;13.13;11.93;;;12.00;99.90;;;;;;4971882;28;20586;-74
2022/04/23 05:25:42;;;;;;;11.80;10.60;;;12.00;99.90;;;;;;4955507;28;20598;-74
2022/04/23 05:28:07;;;;;;;12.30;11.10;;;12.10;99.90;;;;;;4954322;28;20215;-74
2022/04/23 05:30:37;;;;;;;11.80;10.63;;;12.20;99.90;;;;;;4972318;28;20199;-74
2022/04/23 05:33:06;;;;;;;14.27;12.93;;;12.30;99.90;;;;;;4972955;28;20578;-74
2022/04/23 05:35:33;;;;;;;12.50;11.30;;;12.40;99.90;;;;;;4972959;28;20262;-74
2022/04/23 05:37:59;;;;;;;14.27;12.98;;;12.40;99.90;;;;;;4971725;28;20241;-75
2022/04/23 05:40:24;;;;;;;12.93;11.53;;;12.50;99.90;;;;;;4972509;28;20726;-75
2022/04/23 05:42:55;;;;;;;11.70;10.50;;;12.60;99.90;;;;;;4955479;28;20178;-74
2022/04/23 05:45:20;;;;;;;14.38;12.93;;;12.70;99.90;;;;;;4971589;28;21163;-74
2022/04/23 05:47:46;;;;;;;13.00;11.87;;;12.80;99.90;;;;;;4964330;28;20210;-75
2022/04/23 05:50:12;;;;;;;13.00;11.70;;;12.90;99.90;;;;;;4977920;28;20183;-75
2022/04/23 05:52:37;;;;;;;11.37;10.33;;;13.00;99.90;;;;;;4983446;28;20251;-74
2022/04/23 05:55:05;;;;;;;12.87;11.67;;;13.20;99.90;;;;;;4981641;28;20245;-74
2022/04/23 05:57:34;;;;;;;10.75;9.68;;;13.30;99.90;;;;;;4982270;28;20707;-74
2022/04/23 05:59:59;;;;;;;11.70;10.52;;;13.40;99.90;;;;;;4974866;28;20320;-74
2022/04/23 06:02:25;;;;;;;12.33;11.07;;;13.60;99.90;;;;;;4963621;28;20635;-74
2022/04/23 06:04:52;;;;;;;12.70;11.40;;;13.70;99.90;;;;;;4978883;28;20694;-74
2022/04/23 06:07:18;;;;;;;12.43;11.25;;;13.80;99.90;;;;;;4978915;28;20244;-74
2022/04/23 06:09:45;;;;;;;11.45;10.48;;;13.90;99.90;;;;;;4982801;28;20167;-74
2022/04/23 06:12:11;;;;;;;12.10;10.90;;;14.00;99.90;;;;;;4981414;28;20627;-74
2022/04/23 06:14:37;;;;;;;12.93;10.88;;;14.20;99.90;;;;;;4964597;28;20499;-74
2022/04/23 06:17:13;;;;;;;11.20;10.20;;;14.30;99.90;;;;;;4965047;28;20310;-74
2022/04/23 06:19:39;;;;;;;13.52;12.27;;;14.40;99.90;;;;;;4984340;28;20168;-74
2022/04/23 06:22:06;;;;;;;11.85;10.85;;;14.50;99.90;;;;;;4975914;28;20168;-74
2022/04/23 06:24:32;;;;;;;11.60;10.50;;;14.70;99.90;;;;;;4976387;28;20186;-75
2022/04/23 06:26:58;;;;;;;11.40;10.30;;;15.00;99.90;;;;;;4958396;28;20211;-75
2022/04/23 06:29:24;;;;;;;12.00;10.90;;;15.60;99.90;;;;;;4975936;28;20222;-75
2022/04/23 06:31:50;;;;;;;10.70;9.80;;;16.40;99.90;;;;;;4958353;28;20290;-75
2022/04/23 06:34:15;;;;;;;10.63;9.53;;;17.00;99.90;;;;;;4976167;28;20481;-75
2022/04/23 06:36:42;;;;;;;12.00;10.90;;;17.70;99.90;;;;;;4942377;28;20630;-75
2022/04/23 06:39:08;;;;;;;11.70;10.63;;;18.40;99.90;;;;;;4958280;28;20226;-74
2022/04/23 06:41:34;;;;;;;10.53;9.53;;;18.90;97.80;;;;;;4975168;28;20589;-75
2022/04/23 06:43:59;;;;;;;10.53;9.63;;;19.50;97.30;;;;;;4958248;28;20591;-75
2022/04/23 06:46:25;;;;;;;9.50;8.70;;;20.00;96.40;;;;;;4975831;28;20676;-74
2022/04/23 06:48:51;;;;;;;12.17;11.17;;;20.40;95.50;;;;;;4975103;28;20179;-74
2022/04/23 06:51:17;;;;;;;8.63;7.83;;;20.80;93.10;;;;;;4974635;28;20203;-73
2022/04/23 06:53:43;;;;;;;8.83;8.03;;;21.30;94.20;;;;;;4973148;28;20259;-73
2022/04/23 06:56:09;;;;;;;8.93;8.23;;;21.70;93.60;;;;;;4975423;28;20171;-73
2022/04/23 06:58:34;;;;;;;7.33;6.73;;;22.20;92.20;;;;;;4973703;28;20262;-73
2022/04/23 07:01:00;;;;;;;8.07;7.47;;;22.80;92.30;;;;;;4957901;28;20688;-73
2022/04/23 07:03:26;;;;;;;9.23;8.07;;;23.30;90.60;;;;;;4939264;28;21244;-73
2022/04/23 07:05:52;;;;;;;9.93;9.13;;;23.70;90.20;;;;;;4975630;28;20594;-74
2022/04/23 07:08:18;;;;;;;8.87;8.10;;;24.00;82.50;;;;;;4974655;28;20607;-74
2022/04/23 07:10:44;;;;;;;7.33;6.60;;;24.20;81.30;;;;;;4975034;28;21033;-74
2022/04/23 07:13:11;;;;;;;7.57;6.97;;;24.40;79.30;;;;;;4958088;28;20178;-74
2022/04/23 07:15:39;;;;;;;7.73;7.03;;;24.40;76.10;;;;;;4975354;28;20567;-74
2022/04/23 07:18:06;;;;;;;7.60;7.00;;;24.40;75.50;;;;;;4974665;28;20971;-74
2022/04/23 07:20:32;;;;;;;8.60;7.90;;;24.60;73.10;;;;;;4956446;28;20751;-74
2022/04/23 07:25:42;;;;;;;8.70;7.90;;;24.90;68.90;;;;;;4973759;28;20798;-74
2022/04/23 07:28:08;;;;;;;6.77;6.17;;;24.80;63.40;;;;;;4973046;28;20725;-75
2022/04/23 07:30:35;;;;;;;6.43;5.93;;;24.80;65.60;;;;;;4973588;28;20207;-74
2022/04/23 07:33:01;;;;;;;7.37;6.70;;;25.20;66.70;;;;;;4975109;28;20172;-75
2022/04/23 07:38:12;;;;;;;7.00;6.30;;;25.90;61.30;;;;;;4974390;28;20935;-74
2022/04/23 07:40:40;;;;;;;6.93;6.33;;;25.80;61.30;;;;;;4974886;28;20570;-74
2022/04/23 07:43:10;;;;;;;7.10;6.60;;;25.70;60.10;;;;;;4975027;28;21101;-74
2022/04/23 07:45:39;;;;;;;7.90;7.20;;;25.80;59.60;;;;;;4957717;28;20579;-74
2022/04/23 07:48:07;;;;;;;6.00;5.57;;;25.90;59.50;;;;;;4961397;28;21185;-74
2022/04/23 07:50:39;;;;;;;6.10;5.60;;;26.10;60.00;;;;;;4941359;28;20963;-74
2022/04/23 07:53:05;;;;;;;6.47;5.87;;;26.40;60.70;;;;;;4974817;28;20938;-74
2022/04/23 07:55:36;;;;;;;7.50;6.80;;;26.80;60.90;;;;;;4941541;28;20663;-74
2022/04/23 07:58:06;;;;;;;8.00;7.40;;;27.20;58.90;;;;;;4973170;28;21094;-74
2022/04/23 08:00:34;;;;;;;8.73;8.02;;;27.20;54.70;;;;;;4973295;28;20721;-74
2022/04/23 08:02:59;;;;;;;5.80;5.20;;;27.30;53.40;;;;;;4974300;28;20180;-74
2022/04/23 08:05:25;;;;;;;7.00;6.40;;;27.70;56.10;;;;;;4956963;28;20575;-74
2022/04/23 08:07:51;;;;;;;6.03;5.63;;;28.00;54.20;;;;;;4970883;28;20279;-74
2022/04/23 08:10:17;;;;;;;6.07;5.60;;;28.10;53.50;;;;;;4973816;28;20210;-75
2022/04/23 08:12:42;;;;;;;5.70;5.10;;;28.00;53.30;;;;;;4957177;28;20175;-75
2022/04/23 08:15:09;;;;;;;7.17;5.77;;;28.10;52.90;;;;;;4956868;28;20164;-75
2022/04/23 08:17:35;;;;;;;5.80;5.17;;;28.00;53.00;;;;;;4972742;28;20191;-75
2022/04/23 08:20:00;;;;;;;5.83;5.33;;;28.10;52.50;;;;;;4973735;28;20925;-75
2022/04/23 08:22:26;;;;;;;7.07;6.47;;;28.10;51.80;;;;;;4968836;28;20580;-75
2022/04/23 08:24:52;;;;;;;5.87;5.27;;;27.90;51.30;;;;;;4973785;28;20607;-75
2022/04/23 08:27:18;;;;;;;6.53;5.80;;;27.70;50.80;;;;;;4973910;28;20203;-75
2022/04/23 08:32:29;;;;;;;5.90;5.50;;;27.80;50.80;;;;;;4973950;28;20577;-75
2022/04/23 08:34:54;;;;;;;6.77;6.17;;;27.70;49.30;;;;;;4973792;28;20961;-75
2022/04/23 08:37:22;;;;;;;6.40;5.90;;;27.40;49.50;;;;;;4955769;28;20323;-75
2022/04/23 08:39:48;;;;;;;6.90;6.30;;;27.40;49.50;;;;;;4973027;28;20234;-76
2022/04/23 08:42:17;;;;;;;6.40;5.50;;;27.40;49.60;;;;;;4956262;28;20571;-76
2022/04/23 08:44:45;;;;;;;5.00;4.60;;;27.60;49.90;;;;;;4973788;28;20164;-74
2022/04/23 08:47:11;;;;;;;5.73;5.23;;;27.80;50.60;;;;;;4972896;28;20602;-75
2022/04/23 08:49:42;;;;;;;7.07;6.37;;;28.20;50.40;;;;;;4972516;28;20559;-75
2022/04/23 08:52:27;;;;;;;5.00;4.60;;;28.30;49.40;;;;;;4940042;28;20987;-76
2022/04/23 08:54:54;;;;;;;5.60;5.10;;;28.50;48.70;;;;;;4973786;28;20973;-76
2022/04/23 08:57:20;;;;;;;5.40;5.00;;;28.40;48.90;;;;;;4955942;28;20591;-75
2022/04/23 08:59:51;;;;;;;6.43;5.93;;;28.70;49.00;;;;;;4956623;28;20930;-75
2022/04/23 09:02:17;;;;;;;6.13;5.53;;;28.60;47.30;;;;;;4973031;28;20514;-75
2022/04/23 09:04:42;;;;;;;5.90;5.40;;;28.60;46.90;;;;;;4973439;28;20670;-75
2022/04/23 09:07:19;;;;;;;6.10;5.50;;;28.40;47.00;;;;;;4973061;28;20191;-75
2022/04/23 09:09:52;;;;;;;5.20;4.80;;;28.30;46.70;;;;;;4972198;28;20171;-75
2022/04/23 09:12:19;;;;;;;5.23;4.60;;;28.50;47.70;;;;;;4973175;28;20618;-75
2022/04/23 09:14:46;;;;;;;5.83;5.33;;;28.80;47.90;;;;;;4955908;28;20641;-76
2022/04/23 09:23:39;;;;;;;4.80;4.50;;;29.10;47.20;;;;;;4955552;28;20607;-75
2022/04/23 09:25:45;;;;;;;4.80;4.40;;;29.20;44.00;;;;;;4972878;28;20583;-75
2022/04/23 09:32:55;;;;;;;6.53;5.93;;;29.00;44.90;;;;;;4898601;29;20709;-75
2022/04/23 09:40:00;;;;;;;4.90;4.40;;;28.70;43.90;;;;;;4811822;29;20896;-75
2022/04/23 09:42:26;;;;;;;4.90;4.50;;;28.40;43.70;;;;;;4888365;28;20838;-76
2022/04/23 09:44:54;;;;;;;5.20;4.70;;;28.40;43.90;;;;;;4973049;28;21301;-75
2022/04/23 09:47:30;;;;;;;4.97;4.50;;;28.00;43.80;;;;;;4956091;28;20266;-75
2022/04/23 09:49:56;;;;;;;5.10;4.70;;;28.20;44.20;;;;;;4955967;28;20209;-74
2022/04/23 09:52:29;;;;;;;4.97;4.47;;;28.40;44.60;;;;;;4974306;28;20618;-75
2022/04/23 09:55:02;;;;;;;5.57;4.30;;;28.80;44.30;;;;;;4955716;28;20574;-75
2022/04/23 09:57:28;;;;;;;5.30;4.80;;;29.00;45.00;;;;;;4972564;28;20587;-75
2022/04/23 09:59:55;;;;;;;4.47;4.17;;;29.20;44.60;;;;;;4971957;28;20580;-75
2022/04/23 10:02:24;;;;;;;3.90;3.60;;;29.50;45.20;;;;;;4971506;28;20172;-75
2022/04/23 10:04:54;;;;;;;4.77;3.50;;;29.60;43.40;;;;;;4972664;28;20582;-75
2022/04/23 10:07:21;;;;;;;4.40;4.00;;;29.50;43.10;;;;;;4955007;28;20602;-75
2022/04/23 10:09:48;;;;;;;4.27;3.87;;;29.20;42.90;;;;;;4970652;28;20619;-75
2022/04/23 10:12:19;;;;;;;4.40;4.10;;;29.20;43.40;;;;;;4972496;28;20621;-75
2022/04/23 10:14:56;;;;;;;4.90;4.40;;;29.20;42.60;;;;;;4955021;28;20579;-75
2022/04/23 10:17:24;;;;;;;4.20;3.80;;;28.90;41.70;;;;;;4972339;28;20599;-75
2022/04/23 10:19:50;;;;;;;4.70;3.33;;;28.70;42.60;;;;;;4971688;28;20564;-74
2022/04/23 10:22:47;;;;;;;4.50;4.20;;;28.60;42.90;;;;;;4972319;28;20672;-74
2022/04/23 10:25:33;;;;;;;3.60;3.30;;;28.70;43.80;;;;;;4971191;28;20570;-75
2022/04/23 10:27:59;;;;;;;4.63;4.03;;;29.00;43.60;;;;;;4970287;28;21097;-74
2022/04/23 10:30:26;;;;;;;4.60;4.20;;;28.90;42.50;;;;;;4972220;28;20611;-75
2022/04/23 10:32:52;;;;;;;5.20;4.80;;;28.60;42.30;;;;;;4972239;28;20587;-75
2022/04/23 10:35:18;;;;;;;9.17;4.87;;;28.40;42.30;;;;;;4970964;28;20941;-75
2022/04/23 10:37:45;;;;;;;5.20;4.80;;;28.30;41.90;;;;;;4954777;28;20687;-74
2022/04/23 10:40:11;;;;;;;5.70;5.20;;;28.10;42.40;;;;;;4969584;28;20203;-75
2022/04/23 10:42:38;;;;;;;8.37;4.53;;;27.70;42.10;;;;;;4970809;28;20661;-75
2022/04/23 10:45:06;;;;;;;5.30;4.90;;;27.60;43.10;;;;;;4972268;28;20184;-74
2022/04/23 10:47:34;;;;;;;6.67;4.27;;;27.60;43.40;;;;;;4971697;28;20623;-75
2022/04/23 10:50:16;;;;;;;4.80;4.30;;;27.70;44.50;;;;;;4971657;28;20571;-75
2022/04/23 10:52:43;;;;;;;5.07;4.67;;;28.00;44.80;;;;;;4972036;28;20579;-75
2022/04/23 10:55:10;;;;;;;5.23;4.60;;;28.50;44.60;;;;;;4954560;28;20582;-74
2022/04/23 10:57:38;;;;;;;4.93;4.43;;;28.50;43.80;;;;;;4971063;28;20591;-75
2022/04/23 11:00:11;;;;;;;5.73;5.30;;;28.50;43.50;;;;;;4969775;28;20630;-74
2022/04/23 11:02:39;;;;;;;5.70;5.20;;;28.10;42.50;;;;;;4957396;28;21139;-74
2022/04/23 11:13:56;;;;;;;5.23;4.83;;;27.40;43.30;;;;;;4975427;28;20886;-74
2022/04/23 11:16:24;;;;;;;5.10;4.43;;;27.50;43.80;;;;;;4975074;28;20642;-75
2022/04/23 11:18:53;;;;;;;6.30;5.70;;;27.60;43.70;;;;;;4974966;28;20567;-74
2022/04/23 11:21:26;;;;;;;5.00;4.60;;;27.70;43.70;;;;;;4974889;28;20913;-74
2022/04/23 11:23:57;;;;;;;5.50;5.10;;;27.70;43.10;;;;;;4942159;28;21163;-74
2022/04/23 11:26:45;;;;;;;5.30;4.90;;;27.80;42.70;;;;;;4974682;28;20775;-74
2022/04/23 11:29:13;;;;;;;5.43;4.93;;;27.60;42.30;;;;;;4974716;28;20579;-74
2022/04/23 11:31:39;;;;;;;5.60;5.10;;;27.70;43.20;;;;;;4957392;28;20634;-76
2022/04/23 11:34:14;;;;;;;6.03;5.43;;;27.80;43.30;;;;;;4974914;28;20645;-75
2022/04/23 11:36:40;;;;;;;5.90;5.40;;;27.70;42.10;;;;;;4974729;28;20598;-74
2022/04/23 11:39:08;;;;;;;5.83;4.80;;;27.40;42.10;;;;;;4974498;28;20933;-75
2022/04/23 11:41:36;;;;;;;7.43;5.53;;;27.20;42.00;;;;;;4974423;28;20172;-75
2022/04/23 11:45:07;;;;;;;5.00;4.60;;;26.90;42.00;;;;;;4974840;28;20601;-74
2022/04/23 11:47:08;;;;;;;5.10;4.60;;;26.50;42.10;;;;;;4953545;28;20721;-75
2022/04/23 11:49:34;;;;;;;5.10;4.70;;;26.30;42.80;;;;;;4974109;28;20578;-75
2022/04/23 11:52:02;;;;;;;4.90;4.23;;;26.10;42.70;;;;;;4957004;28;20630;-75
2022/04/23 11:54:35;;;;;;;5.13;4.53;;;25.90;42.90;;;;;;4941357;28;20575;-75
2022/04/23 11:57:02;;;;;;;10.03;4.43;;;25.60;43.10;;;;;;4972938;28;20611;-75
2022/04/23 11:59:38;;;;;;;9.23;4.40;;;25.60;43.40;;;;;;4956631;28;20587;-75
2022/04/23 12:02:21;;;;;;;7.40;5.10;;;25.50;43.60;;;;;;4974027;28;20606;-75
2022/04/23 12:04:48;;;;;;;6.00;4.83;;;25.40;43.70;;;;;;4973257;28;20675;-75
2022/04/23 12:07:14;;;;;;;8.87;4.77;;;25.30;43.70;;;;;;4974046;28;20606;-75
2022/04/23 12:09:49;;;;;;;5.40;4.90;;;25.20;44.10;;;;;;4973301;28;20571;-75
2022/04/23 12:12:19;;;;;;;10.53;4.90;;;25.10;44.20;;;;;;4973230;28;20625;-75
2022/04/23 12:14:50;;;;;;;18.47;4.93;;;25.10;44.30;;;;;;4973210;28;20675;-75
2022/04/23 12:17:31;;;;;;;4.73;4.00;;;25.00;44.50;;;;;;4973991;28;20598;-75
2022/04/23 12:19:59;;;;;;;4.70;4.30;;;24.90;44.60;;;;;;4973747;28;20587;-74
2022/04/23 12:22:25;;;;;;;5.93;5.43;;;25.00;44.60;;;;;;4972907;28;21359;-75
2022/04/23 12:24:50;;;;;;;5.53;5.03;;;24.80;44.60;;;;;;4973927;28;20575;-75
2022/04/23 12:27:17;;;;;;;6.40;5.50;;;24.80;44.90;;;;;;4973776;28;20207;-75
2022/04/23 12:40:57;;;;;;;5.70;5.13;;;24.30;44.90;;;;;;4955668;28;20577;-75
2022/04/23 12:43:31;;;;;;;6.37;4.80;;;24.20;45.00;;;;;;4973814;28;20571;-75
2022/04/23 12:46:05;;;;;;;6.00;5.50;;;24.00;45.10;;;;;;4972519;28;20582;-75
2022/04/23 12:48:33;;;;;;;7.30;5.40;;;23.90;45.50;;;;;;4939652;28;20563;-75
2022/04/23 12:51:06;;;;;;;11.40;5.40;;;23.90;45.40;;;;;;4973035;28;20619;-75
2022/04/23 12:53:34;;;;;;;8.93;5.83;;;23.90;45.90;;;;;;4956031;28;20585;-75
2022/04/23 12:56:03;;;;;;;7.47;6.80;;;23.90;45.70;;;;;;4956147;28;20954;-75
2022/04/23 12:58:30;;;;;;;14.43;6.10;;;24.00;45.60;;;;;;4973337;28;20570;-76
2022/04/23 13:00:57;;;;;;;8.73;7.93;;;23.80;45.70;;;;;;4973770;28;20980;-75
2022/04/23 13:03:59;;;;;;;8.63;7.93;;;23.80;46.10;;;;;;4975691;28;20660;-75
2022/04/23 13:09:09;;;;;;;7.80;6.77;;;23.30;46.10;;;;;;4969968;28;20599;-74
2022/04/23 13:11:35;;;;;;;9.10;8.20;;;23.10;46.80;;;;;;4973073;28;20625;-74
2022/04/23 13:14:04;;;;;;;10.53;7.77;;;22.90;46.90;;;;;;4973082;28;20167;-74
2022/04/23 13:16:32;;;;;;;11.13;7.73;;;22.70;47.20;;;;;;4955834;28;20187;-74
2022/04/23 13:18:59;;;;;;;11.43;7.40;;;22.40;47.20;;;;;;4955540;28;20677;-74
2022/04/23 13:21:28;;;;;;;11.40;6.90;;;22.30;47.20;;;;;;4972734;28;21145;-74
2022/04/23 13:23:55;;;;;;;8.87;8.00;;;22.20;47.60;;;;;;4972617;28;20575;-74
2022/04/23 13:26:22;;;;;;;10.50;7.13;;;22.10;47.90;;;;;;4972697;28;20591;-74
2022/04/23 13:28:48;;;;;;;14.57;7.80;;;21.90;48.00;;;;;;4972334;28;20661;-74
2022/04/23 13:31:15;;;;;;;9.73;7.50;;;21.90;48.00;;;;;;4955220;28;20647;-74
2022/04/23 13:33:42;;;;;;;12.03;7.60;;;21.90;48.50;;;;;;4955450;28;20563;-74